Time;durP1;ratioP1;P1;durP2;ratioP2;P2;SDS_P1;SDS_P2;PMS_P1;PMS_P2;Temp;Humidity;BMP_temperature;BMP_pressure;BME280_temperature;BME280_humidity;BME280_pressure;Samples;Min_cycle;Max_cycle;Signal;HPM_P1;HPM_P2
2022/06/27 00:02:23;;;;;;;16.50;15.07;;;;;;;25.27;49.84;100163.16;4995004;28;101359;-75
2022/06/27 00:04:49;;;;;;;16.58;15.27;;;;;;;25.42;49.20;100158.09;5028989;28;96994;-75
2022/06/27 00:07:15;;;;;;;16.40;15.20;;;;;;;25.37;49.00;100138.94;5011988;28;98478;-75
2022/06/27 00:09:41;;;;;;;17.10;15.77;;;;;;;25.33;49.71;100157.16;4996026;28;101559;-75
2022/06/27 00:12:08;;;;;;;16.85;15.63;;;;;;;25.24;49.27;100155.38;5007643;28;99020;-75
2022/06/27 00:14:34;;;;;;;17.17;15.88;;;;;;;25.14;49.71;100157.31;5003552;28;97270;-75
2022/06/27 00:16:59;;;;;;;17.30;15.85;;;;;;;25.04;50.04;100158.16;5012327;28;97172;-75
2022/06/27 00:19:25;;;;;;;16.45;15.25;;;;;;;24.94;50.36;100152.00;5011840;28;101720;-75
2022/06/27 00:21:50;;;;;;;18.52;16.67;;;;;;;24.68;50.65;100134.88;5030522;28;97446;-75
2022/06/27 00:24:16;;;;;;;17.63;16.42;;;;;;;24.96;50.28;100159.88;5012072;28;97143;-75
2022/06/27 00:26:41;;;;;;;17.80;16.42;;;;;;;24.95;50.29;100156.34;4995629;28;97412;-75
2022/06/27 00:29:07;;;;;;;17.65;16.30;;;;;;;24.80;50.68;100157.84;5028230;28;98256;-76
2022/06/27 00:31:32;;;;;;;17.02;15.82;;;;;;;24.53;51.21;100132.69;5011964;28;101683;-75
2022/06/27 00:33:58;;;;;;;17.30;15.73;;;;;;;24.68;51.34;100156.34;5012402;28;98173;-75
2022/06/27 00:36:24;;;;;;;17.75;16.08;;;;;;;24.79;50.80;100159.69;5011538;28;97200;-75
2022/06/27 00:38:49;;;;;;;16.98;15.70;;;;;;;24.60;51.19;100155.22;4995515;28;100977;-76
2022/06/27 00:41:15;;;;;;;17.50;16.20;;;;;;;24.41;51.55;100139.19;5010119;28;101339;-75
2022/06/27 00:43:44;;;;;;;17.13;15.88;;;;;;;24.61;51.41;100165.00;4995616;28;96997;-75
2022/06/27 00:46:10;;;;;;;17.67;16.42;;;;;;;24.54;51.58;100161.19;5011557;28;97506;-75
2022/06/27 00:48:36;;;;;;;17.80;16.42;;;;;;;24.56;51.09;100139.59;5028727;28;98183;-75
2022/06/27 00:51:02;;;;;;;17.23;16.02;;;;;;;24.37;51.50;100140.44;5011457;28;101291;-75
2022/06/27 00:53:28;;;;;;;17.30;15.75;;;;;;;24.69;50.79;100155.34;5011041;28;96744;-75
2022/06/27 00:55:54;;;;;;;17.85;16.35;;;;;;;24.39;51.67;100160.78;5011857;28;96944;-75
2022/06/27 00:58:20;;;;;;;17.13;15.68;;;;;;;24.34;51.87;100160.34;4994490;28;101510;-75
2022/06/27 01:00:45;;;;;;;17.25;16.05;;;;;;;24.38;51.34;100153.72;5028218;27;97827;-75
2022/06/27 01:03:11;;;;;;;17.50;16.20;;;;;;;24.40;51.55;100157.13;5005164;28;97088;-75
2022/06/27 01:05:37;;;;;;;17.80;16.27;;;;;;;24.25;51.93;100163.06;5029300;28;96871;-75
2022/06/27 01:08:02;;;;;;;17.45;16.05;;;;;;;24.32;51.75;100164.19;5028419;28;97865;-75
2022/06/27 01:10:28;;;;;;;17.27;15.77;;;;;;;24.23;52.06;100162.34;5010730;28;101068;-75
2022/06/27 01:12:54;;;;;;;18.05;16.58;;;;;;;24.21;51.96;100165.19;5026761;28;97195;-75
2022/06/27 01:15:19;;;;;;;18.48;16.75;;;;;;;24.23;51.84;100167.72;5009430;28;96868;-75
2022/06/27 01:17:46;;;;;;;17.80;16.58;;;;;;;24.33;51.40;100177.44;5026760;28;98020;-75
2022/06/27 01:20:12;;;;;;;17.85;16.45;;;;;;;24.11;51.42;100153.63;5028170;28;97288;-75
2022/06/27 01:22:37;;;;;;;17.25;16.02;;;;;;;24.24;51.32;100172.97;5028063;28;96894;-75
2022/06/27 01:25:04;;;;;;;16.77;15.70;;;;;;;23.98;51.80;100145.06;5011782;28;96979;-75
2022/06/27 01:27:29;;;;;;;17.77;16.50;;;;;;;23.97;52.02;100175.50;5010221;28;100955;-75
2022/06/27 01:29:55;;;;;;;17.02;15.73;;;;;;;23.88;52.23;100159.31;5011535;28;100981;-75
2022/06/27 01:32:21;;;;;;;16.98;15.77;;;;;;;23.90;52.17;100164.53;5027284;28;97142;-75
2022/06/27 01:34:48;;;;;;;18.05;16.40;;;;;;;24.05;51.82;100155.03;4995880;28;97024;-75
2022/06/27 01:37:15;;;;;;;17.77;16.40;;;;;;;23.93;51.60;100149.00;5007517;28;99637;-75
2022/06/27 01:39:42;;;;;;;16.67;15.48;;;;;;;23.91;52.04;100166.19;5011811;28;100641;-75
2022/06/27 01:42:07;;;;;;;17.25;15.95;;;;;;;23.78;51.99;100144.22;5027333;28;97039;-75
2022/06/27 01:44:34;;;;;;;17.55;16.02;;;;;;;23.85;51.61;100151.56;5027706;28;97453;-75
2022/06/27 01:46:59;;;;;;;16.73;15.48;;;;;;;23.71;52.40;100160.03;5027907;28;98085;-75
2022/06/27 01:49:26;;;;;;;16.90;15.68;;;;;;;23.83;52.14;100166.09;5027355;28;101204;-75
2022/06/27 01:51:52;;;;;;;17.40;16.20;;;;;;;23.69;52.13;100159.28;5011081;28;96804;-75
2022/06/27 01:54:20;;;;;;;17.15;15.95;;;;;;;23.68;52.26;100160.28;4997117;28;96866;-75
2022/06/27 01:56:46;;;;;;;17.25;15.90;;;;;;;23.73;51.72;100158.88;5014513;28;101658;-75
2022/06/27 01:59:14;;;;;;;17.50;16.05;;;;;;;23.70;51.78;100143.06;4997637;28;101327;-75
2022/06/27 02:01:41;;;;;;;17.50;16.20;;;;;;;23.61;51.85;100159.97;5014299;28;97211;-76
2022/06/27 02:04:06;;;;;;;17.80;16.33;;;;;;;23.61;51.83;100154.59;5014767;28;96941;-75
2022/06/27 02:06:33;;;;;;;17.85;16.50;;;;;;;23.68;51.80;100153.06;5012842;28;101230;-75
2022/06/27 02:08:58;;;;;;;18.90;17.08;;;;;;;23.64;51.89;100151.66;5031117;28;101312;-75
2022/06/27 02:11:26;;;;;;;17.25;15.82;;;;;;;23.72;51.86;100156.34;5013118;28;97292;-75
2022/06/27 02:13:54;;;;;;;17.40;16.30;;;;;;;23.92;51.54;100147.31;5014291;28;97545;-75
2022/06/27 02:16:20;;;;;;;17.45;16.30;;;;;;;23.61;52.01;100135.00;5013731;28;101212;-75
2022/06/27 02:18:47;;;;;;;17.27;15.73;;;;;;;23.61;52.25;100146.56;5013900;28;101029;-75
2022/06/27 02:21:20;;;;;;;17.75;16.55;;;;;;;23.49;52.22;100135.16;5030479;28;97068;-76
2022/06/27 02:23:47;;;;;;;17.38;15.98;;;;;;;23.60;52.45;100157.44;4994746;28;96862;-75
2022/06/27 02:26:13;;;;;;;16.83;15.43;;;;;;;23.70;52.22;100158.31;5013554;28;101309;-75
2022/06/27 02:28:40;;;;;;;16.67;15.40;;;;;;;23.80;52.07;100156.50;5031539;28;97995;-75
2022/06/27 02:31:06;;;;;;;17.70;16.33;;;;;;;23.52;52.46;100168.84;5013485;28;97484;-75
2022/06/27 02:33:43;;;;;;;16.45;15.15;;;;;;;23.31;53.09;100163.59;5014111;28;96801;-75
2022/06/27 02:36:13;;;;;;;16.35;15.15;;;;;;;23.33;53.30;100177.72;5014112;28;97933;-75
2022/06/27 02:38:40;;;;;;;17.00;15.43;;;;;;;23.18;53.24;100161.16;5014403;28;102067;-75
2022/06/27 02:41:08;;;;;;;16.25;14.82;;;;;;;23.25;53.34;100172.19;5030472;28;97132;-75
2022/06/27 02:43:35;;;;;;;15.70;14.55;;;;;;;23.30;53.14;100182.47;5031911;27;97605;-75
2022/06/27 02:46:02;;;;;;;16.73;15.63;;;;;;;23.14;53.51;100178.50;5010479;28;100942;-75
2022/06/27 02:48:31;;;;;;;17.23;15.27;;;;;;;23.26;53.48;100180.06;5007464;28;101318;-75
2022/06/27 02:50:59;;;;;;;17.30;15.93;;;;;;;23.07;53.78;100165.78;5010242;28;96787;-75
2022/06/27 02:53:27;;;;;;;17.13;15.82;;;;;;;23.20;53.43;100188.66;4985722;28;96865;-75
2022/06/27 02:56:06;;;;;;;18.40;16.13;;;;;;;23.15;53.53;100174.81;5014331;28;101067;-75
2022/06/27 02:58:37;;;;;;;17.05;15.52;;;;;;;23.22;53.19;100186.69;5010857;28;101163;-75
2022/06/27 03:01:05;;;;;;;17.77;16.42;;;;;;;23.11;53.42;100189.47;4993899;28;97115;-75
2022/06/27 03:03:32;;;;;;;17.13;15.80;;;;;;;23.11;53.26;100170.72;4997259;28;97082;-75
2022/06/27 03:06:02;;;;;;;18.60;16.73;;;;;;;22.95;53.87;100190.00;5029371;27;98530;-75
2022/06/27 03:08:38;;;;;;;17.35;15.90;;;;;;;22.98;53.63;100184.38;5016317;28;101008;-75
2022/06/27 03:11:04;;;;;;;17.33;15.80;;;;;;;22.98;53.42;100191.53;5027860;28;97551;-75
2022/06/27 03:13:30;;;;;;;17.15;16.02;;;;;;;23.06;53.27;100181.00;5013279;28;96732;-75
2022/06/27 03:15:58;;;;;;;17.23;16.02;;;;;;;23.01;53.26;100191.28;5013415;28;102070;-75
2022/06/27 03:18:24;;;;;;;17.67;16.25;;;;;;;23.13;52.76;100190.19;5031403;27;97823;-75
2022/06/27 03:21:13;;;;;;;17.30;15.68;;;;;;;23.05;52.76;100182.00;5030718;28;96892;-75
2022/06/27 03:23:40;;;;;;;16.75;15.38;;;;;;;23.13;52.63;100197.38;5013250;28;97424;-75
2022/06/27 03:26:07;;;;;;;17.15;15.75;;;;;;;23.11;52.80;100188.63;5013085;28;101624;-75
2022/06/27 03:28:34;;;;;;;17.25;15.77;;;;;;;23.07;52.65;100192.53;5013240;28;101568;-75
2022/06/27 03:31:01;;;;;;;16.77;15.10;;;;;;;23.14;52.26;100172.28;5013734;28;96771;-75
2022/06/27 03:33:30;;;;;;;17.25;15.85;;;;;;;23.34;52.06;100194.63;5013598;28;97021;-75
2022/06/27 03:36:03;;;;;;;17.65;15.95;;;;;;;23.25;51.90;100178.38;5013894;28;101044;-75
2022/06/27 03:38:30;;;;;;;16.90;15.50;;;;;;;23.19;52.10;100183.44;5013349;28;101017;-75
2022/06/27 03:40:57;;;;;;;16.90;15.57;;;;;;;23.28;52.11;100194.19;5012885;28;96771;-75
2022/06/27 03:43:23;;;;;;;17.10;15.55;;;;;;;23.42;51.79;100194.78;4996707;28;96927;-75
2022/06/27 03:45:49;;;;;;;18.05;16.40;;;;;;;23.47;51.72;100187.16;5029281;28;98564;-75
2022/06/27 03:49:59;;;;;;;17.35;16.05;;;;;;;23.50;51.64;100193.09;5030139;28;97911;-75
2022/06/27 03:51:20;;;;;;;17.40;16.13;;;;;;;23.46;51.70;100191.66;5010285;28;96802;-75
2022/06/27 03:53:46;;;;;;;17.77;16.27;;;;;;;23.48;51.76;100191.56;5029697;28;96914;-75
2022/06/27 03:56:12;;;;;;;18.75;16.98;;;;;;;23.50;51.53;100198.47;5012325;28;101210;-75
2022/06/27 03:58:38;;;;;;;19.75;17.95;;;;;;;23.23;52.05;100196.41;5029466;28;97654;-75
2022/06/27 04:01:03;;;;;;;17.70;16.30;;;;;;;23.38;51.85;100206.75;5010491;28;97369;-75
2022/06/27 04:03:30;;;;;;;19.08;17.48;;;;;;;23.38;52.00;100209.41;5012812;28;96948;-75
2022/06/27 04:06:01;;;;;;;18.83;17.08;;;;;;;23.41;51.75;100190.38;5012963;28;101308;-75
2022/06/27 04:08:27;;;;;;;18.15;16.83;;;;;;;23.40;51.69;100192.22;4992112;28;101227;-75
2022/06/27 04:10:54;;;;;;;19.70;17.77;;;;;;;23.59;51.46;100215.53;5006255;28;97197;-75
2022/06/27 04:13:25;;;;;;;18.60;17.13;;;;;;;23.60;51.24;100211.88;5012093;28;97025;-75
2022/06/27 04:16:16;;;;;;;19.25;17.77;;;;;;;23.73;51.27;100212.47;5010518;28;98878;-75
2022/06/27 04:19:17;;;;;;;19.17;17.77;;;;;;;23.78;50.98;100212.06;5006266;28;99076;-75
2022/06/27 04:21:58;;;;;;;18.52;17.10;;;;;;;23.70;51.56;100206.53;5026272;28;97111;-75
2022/06/27 04:24:56;;;;;;;19.85;18.17;;;;;;;23.81;51.12;100209.09;4975868;28;96979;-75
2022/06/27 04:27:43;;;;;;;19.55;17.95;;;;;;;23.86;50.93;100211.38;5000412;28;101732;-75
2022/06/27 04:30:15;;;;;;;19.40;17.92;;;;;;;23.85;50.97;100212.34;5012494;28;101399;-75
2022/06/27 04:32:42;;;;;;;19.90;18.30;;;;;;;23.84;50.93;100210.66;5012500;28;97398;-75
2022/06/27 04:35:08;;;;;;;20.13;18.55;;;;;;;23.84;51.12;100210.66;5012386;28;97232;-75
2022/06/27 04:37:33;;;;;;;19.65;18.17;;;;;;;24.02;50.80;100205.44;5010803;28;99488;-75
2022/06/27 04:40:34;;;;;;;19.08;17.58;;;;;;;24.11;50.77;100207.25;4935732;28;97454;-75
2022/06/27 04:43:01;;;;;;;20.23;18.73;;;;;;;24.10;50.57;100213.63;5012702;28;96931;-75
2022/06/27 04:45:27;;;;;;;20.15;18.48;;;;;;;24.12;50.58;100214.31;5011914;28;97158;-75
2022/06/27 04:48:00;;;;;;;19.30;17.85;;;;;;;24.13;50.65;100213.31;5013280;28;102136;-75
2022/06/27 04:50:26;;;;;;;20.30;18.33;;;;;;;24.24;50.34;100217.72;5012058;28;101068;-77
2022/06/27 04:52:52;;;;;;;19.60;18.00;;;;;;;24.42;50.25;100204.41;5011461;28;97437;-75
2022/06/27 04:55:18;;;;;;;19.60;18.08;;;;;;;24.53;49.88;100196.22;4995641;28;96944;-74
2022/06/27 04:57:46;;;;;;;20.90;18.75;;;;;;;24.71;49.97;100199.84;5010864;28;101103;-75
2022/06/27 05:00:15;;;;;;;20.60;19.05;;;;;;;24.80;49.53;100212.38;5012068;28;101393;-75
2022/06/27 05:02:59;;;;;;;20.63;18.65;;;;;;;24.93;49.30;100212.06;5029344;28;97365;-75
2022/06/27 05:05:26;;;;;;;19.98;18.25;;;;;;;25.18;49.04;100212.41;5012076;28;96911;-75
2022/06/27 05:07:51;;;;;;;20.17;18.58;;;;;;;25.27;48.69;100209.66;5010501;28;101708;-75
2022/06/27 05:10:18;;;;;;;21.02;18.73;;;;;;;25.38;48.72;100211.28;4989548;28;100754;-75
2022/06/27 05:12:43;;;;;;;21.05;19.15;;;;;;;25.46;48.48;100207.88;5019509;28;97015;-75
2022/06/27 05:15:10;;;;;;;21.10;19.05;;;;;;;25.55;47.95;100203.44;4995008;28;97355;-75
2022/06/27 05:17:35;;;;;;;21.45;19.55;;;;;;;25.60;47.09;100212.72;5010524;28;101266;-75
2022/06/27 05:20:02;;;;;;;21.05;19.15;;;;;;;25.65;46.79;100215.78;5011735;28;101145;-75
2022/06/27 05:22:29;;;;;;;21.85;19.67;;;;;;;25.66;46.90;100201.38;4994772;28;97253;-76
2022/06/27 05:24:55;;;;;;;20.75;19.10;;;;;;;25.76;46.64;100187.84;5011351;28;96881;-75
2022/06/27 05:27:22;;;;;;;20.58;18.67;;;;;;;25.97;46.41;100209.91;4982143;27;101581;-75
2022/06/27 05:29:47;;;;;;;20.80;19.00;;;;;;;25.85;46.28;100216.53;5014113;28;101334;-75
2022/06/27 05:32:13;;;;;;;21.10;19.20;;;;;;;25.85;46.32;100202.25;5029822;28;96726;-75
2022/06/27 05:34:39;;;;;;;21.95;19.60;;;;;;;26.01;46.14;100198.88;5021304;28;97091;-75
2022/06/27 05:37:06;;;;;;;21.17;19.08;;;;;;;26.40;45.49;100212.78;5013058;28;101227;-73
2022/06/27 05:39:33;;;;;;;21.05;18.95;;;;;;;26.53;45.48;100210.56;5014872;28;101258;-74
2022/06/27 05:41:58;;;;;;;20.42;18.38;;;;;;;26.82;44.88;100212.94;5029118;28;96703;-74
2022/06/27 05:44:27;;;;;;;21.55;19.45;;;;;;;26.82;44.34;100195.91;5013219;28;97133;-74
2022/06/27 05:46:56;;;;;;;21.30;18.92;;;;;;;27.18;44.34;100187.69;4994685;28;101826;-74
2022/06/27 05:49:49;;;;;;;20.58;18.48;;;;;;;27.70;43.41;100206.38;4996610;28;97358;-74
2022/06/27 05:52:15;;;;;;;20.30;18.52;;;;;;;27.93;43.09;100209.31;5008808;28;97425;-74
2022/06/27 05:54:44;;;;;;;19.65;17.80;;;;;;;28.38;42.43;100199.84;5014481;28;96909;-75
2022/06/27 05:57:11;;;;;;;19.17;17.45;;;;;;;29.19;40.58;100206.09;5029075;28;101725;-73
2022/06/27 05:59:37;;;;;;;19.40;17.77;;;;;;;29.81;39.50;100206.09;5029188;28;98214;-73
2022/06/27 06:02:03;;;;;;;19.50;17.90;;;;;;;30.67;38.81;100196.72;5025404;28;97105;-74
2022/06/27 06:04:34;;;;;;;19.88;18.15;;;;;;;31.88;36.80;100199.91;5014416;28;97324;-76
2022/06/27 06:07:00;;;;;;;19.95;18.35;;;;;;;32.89;35.25;100192.38;5024438;28;101309;-74
2022/06/27 06:09:26;;;;;;;21.20;18.92;;;;;;;33.07;34.38;100193.75;5013368;28;101974;-74
2022/06/27 06:11:53;;;;;;;19.67;17.98;;;;;;;33.68;33.84;100193.78;5028689;28;96904;-74
2022/06/27 06:14:21;;;;;;;19.10;17.35;;;;;;;34.00;32.88;100203.03;5029868;28;96949;-74
2022/06/27 06:16:50;;;;;;;19.15;17.73;;;;;;;34.68;32.74;100194.69;5025918;28;100973;-74
2022/06/27 06:19:17;;;;;;;21.05;18.10;;;;;;;35.53;31.27;100191.84;5001725;28;101666;-75
2022/06/27 06:21:43;;;;;;;19.35;17.45;;;;;;;35.86;30.47;100190.00;4991206;28;96791;-74
2022/06/27 06:24:09;;;;;;;19.67;18.02;;;;;;;35.98;30.48;100188.22;5004134;28;97625;-75
2022/06/27 06:26:35;;;;;;;20.90;18.70;;;;;;;35.43;31.01;100187.91;5012083;28;100943;-77
2022/06/27 06:29:11;;;;;;;20.02;18.30;;;;;;;36.13;30.33;100185.19;4996979;28;97873;-74
2022/06/27 06:31:40;;;;;;;20.63;18.73;;;;;;;36.59;29.68;100167.53;5009623;28;97245;-75
2022/06/27 06:34:07;;;;;;;18.92;17.52;;;;;;;36.79;29.66;100189.19;5017615;28;96791;-74
2022/06/27 06:36:35;;;;;;;20.05;18.20;;;;;;;37.30;28.71;100175.13;4995035;28;100655;-75
2022/06/27 06:39:02;;;;;;;19.60;17.60;;;;;;;38.06;27.56;100181.00;5015599;27;99211;-75
2022/06/27 06:41:28;;;;;;;19.58;17.88;;;;;;;38.32;27.33;100179.72;5012016;28;97256;-75
2022/06/27 06:43:54;;;;;;;19.17;17.73;;;;;;;38.31;27.24;100186.25;4995566;28;96788;-74
2022/06/27 06:46:48;;;;;;;20.10;18.23;;;;;;;38.97;26.67;100178.72;4988474;28;98529;-75
2022/06/27 06:49:27;;;;;;;19.40;17.60;;;;;;;38.57;26.97;100189.59;5010648;28;99684;-75
2022/06/27 06:51:53;;;;;;;18.52;17.02;;;;;;;38.86;26.85;100180.41;5017062;28;97528;-75
2022/06/27 06:54:20;;;;;;;19.38;17.63;;;;;;;38.92;26.39;100167.63;5025038;28;97998;-75
2022/06/27 06:56:51;;;;;;;18.95;17.38;;;;;;;39.57;26.10;100181.03;5023491;28;99621;-75
2022/06/27 06:59:17;;;;;;;18.73;17.38;;;;;;;40.24;25.58;100173.97;5025323;28;97462;-76
2022/06/27 07:01:44;;;;;;;19.25;17.65;;;;;;;40.03;25.20;100139.81;5007179;28;97318;-75
2022/06/27 07:04:11;;;;;;;19.88;17.35;;;;;;;40.27;25.31;100176.19;4981779;28;97120;-74
2022/06/27 07:06:38;;;;;;;18.92;17.42;;;;;;;40.34;25.42;100171.34;5018821;28;101174;-77
2022/06/27 07:09:04;;;;;;;18.63;16.98;;;;;;;40.40;24.93;100161.25;4991655;28;98045;-75
2022/06/27 07:11:31;;;;;;;18.77;17.48;;;;;;;40.98;24.70;100176.38;5022545;28;97389;-75
2022/06/27 07:13:58;;;;;;;19.20;17.73;;;;;;;40.68;24.60;100163.88;5025123;28;97359;-75
2022/06/27 07:16:24;;;;;;;18.38;16.88;;;;;;;40.85;24.36;100160.25;5007601;28;98168;-75
2022/06/27 07:18:50;;;;;;;18.27;16.70;;;;;;;40.90;24.28;100174.06;5011707;28;98057;-75
2022/06/27 07:21:18;;;;;;;19.15;17.67;;;;;;;40.54;24.79;100167.22;4991357;28;96880;-75
2022/06/27 07:23:48;;;;;;;19.23;17.50;;;;;;;40.88;24.58;100168.81;4990682;28;97181;-75
2022/06/27 07:26:16;;;;;;;17.92;16.67;;;;;;;40.84;24.71;100153.91;5009338;28;100994;-75
2022/06/27 07:28:41;;;;;;;17.45;16.17;;;;;;;41.16;24.85;100158.72;5011725;28;97428;-76
2022/06/27 07:31:12;;;;;;;18.35;16.85;;;;;;;41.27;24.16;100160.50;5009128;28;97302;-75
2022/06/27 07:33:42;;;;;;;17.75;16.45;;;;;;;41.03;24.63;100170.09;4992087;28;97215;-74
2022/06/27 07:36:14;;;;;;;19.08;17.50;;;;;;;41.52;24.03;100170.97;5016794;28;98140;-74
2022/06/27 07:38:41;;;;;;;17.15;16.05;;;;;;;41.36;23.87;100167.19;5009509;28;98022;-74
2022/06/27 07:41:13;;;;;;;18.25;16.80;;;;;;;40.28;24.80;100153.13;5017167;28;97366;-81
2022/06/27 07:43:39;;;;;;;18.85;16.98;;;;;;;40.73;24.27;100149.38;5008222;28;97659;-81
2022/06/27 07:46:05;;;;;;;18.27;16.73;;;;;;;41.21;23.99;100150.50;5011228;28;101420;-80
2022/06/27 07:48:31;;;;;;;17.75;16.45;;;;;;;41.58;23.16;100136.06;4998722;28;101227;-81
2022/06/27 07:50:57;;;;;;;18.15;16.85;;;;;;;42.08;22.56;100148.59;5009043;28;97101;-77
2022/06/27 07:53:24;;;;;;;17.15;15.95;;;;;;;41.32;22.95;100151.47;4997567;28;98136;-78
2022/06/27 07:55:52;;;;;;;17.45;16.45;;;;;;;41.23;23.32;100144.75;5009577;28;97501;-80
2022/06/27 07:58:19;;;;;;;17.73;16.33;;;;;;;41.70;23.11;100139.47;4999013;28;97552;-80
2022/06/27 08:00:47;;;;;;;17.77;16.38;;;;;;;42.03;22.53;100157.66;5008641;28;97373;-81
2022/06/27 08:05:58;;;;;;;17.92;16.65;;;;;;;42.86;22.31;100143.28;5002429;28;101691;-85
2022/06/27 08:08:24;;;;;;;18.35;17.05;;;;;;;43.01;21.94;100150.78;5003060;28;101291;-85
2022/06/27 08:10:51;;;;;;;18.80;16.95;;;;;;;43.62;21.50;100150.97;5018769;28;97334;-82
2022/06/27 08:13:17;;;;;;;19.83;17.23;;;;;;;43.04;22.01;100160.47;4991419;28;96987;-84
2022/06/27 08:15:42;;;;;;;17.13;15.93;;;;;;;42.80;22.25;100155.41;5016177;28;98612;-83
2022/06/27 08:18:09;;;;;;;18.02;16.58;;;;;;;43.25;22.04;100156.66;5023871;28;98054;-83
2022/06/27 08:20:38;;;;;;;16.52;15.52;;;;;;;43.74;21.24;100147.91;5007401;28;97338;-85
2022/06/27 08:23:06;;;;;;;17.63;16.20;;;;;;;42.90;22.09;100135.28;5013797;28;97234;-85
2022/06/27 08:25:38;;;;;;;17.42;15.80;;;;;;;43.95;21.06;100150.72;5019810;28;99364;-87
2022/06/27 08:28:05;;;;;;;16.80;15.43;;;;;;;43.95;20.74;100145.19;5007858;28;101618;-87
2022/06/27 08:30:31;;;;;;;16.58;15.48;;;;;;;43.46;21.41;100140.97;4991996;28;96898;-85
2022/06/27 08:32:58;;;;;;;17.67;16.55;;;;;;;44.65;20.11;100137.84;5022611;28;96977;-86
2022/06/27 08:35:24;;;;;;;17.60;16.02;;;;;;;44.49;20.00;100144.56;5015023;28;97756;-85
2022/06/27 08:37:54;;;;;;;16.50;15.50;;;;;;;44.37;20.23;100158.69;4987546;28;100366;-85
2022/06/27 08:40:22;;;;;;;17.52;15.90;;;;;;;44.32;20.45;100147.59;4992028;28;96987;-88
2022/06/27 08:42:48;;;;;;;16.95;15.85;;;;;;;43.13;21.09;100131.22;4992871;28;97853;-86
2022/06/27 08:45:16;;;;;;;17.30;16.02;;;;;;;43.55;21.20;100141.28;4986413;28;101019;-85
2022/06/27 08:47:42;;;;;;;16.75;15.35;;;;;;;43.72;21.22;100146.53;4991636;28;101365;-88
2022/06/27 08:50:08;;;;;;;16.85;15.57;;;;;;;43.70;21.36;100144.06;5020414;28;97224;-85
2022/06/27 08:52:39;;;;;;;17.38;15.93;;;;;;;42.40;21.84;100150.50;5017480;28;97544;-84
2022/06/27 08:55:08;;;;;;;17.48;15.82;;;;;;;41.54;22.33;100140.41;4992936;28;101638;-85
2022/06/27 08:57:39;;;;;;;16.80;15.50;;;;;;;41.79;22.58;100134.28;4993077;28;101254;-84
2022/06/27 09:00:09;;;;;;;17.52;16.33;;;;;;;41.82;21.75;100142.84;4985152;28;97229;-82
2022/06/27 09:02:45;;;;;;;17.33;16.23;;;;;;;40.15;23.25;100136.97;5011063;28;97196;-83
2022/06/27 09:05:15;;;;;;;16.90;15.80;;;;;;;40.13;23.84;100161.09;5008221;28;101529;-83
2022/06/27 09:07:50;;;;;;;17.05;16.05;;;;;;;39.97;23.92;100155.38;5011163;28;100668;-86
2022/06/27 09:10:26;;;;;;;16.48;15.27;;;;;;;39.50;24.70;100144.63;5003958;28;97305;-83
2022/06/27 09:13:01;;;;;;;17.42;16.13;;;;;;;39.14;24.97;100137.63;5015333;28;97611;-85
2022/06/27 09:15:55;;;;;;;16.90;15.77;;;;;;;38.40;25.76;100141.00;4998990;28;101933;-85
2022/06/27 09:18:25;;;;;;;17.50;16.02;;;;;;;38.52;25.40;100137.41;4999033;28;101297;-83
2022/06/27 09:20:52;;;;;;;;;;;;;;;38.32;25.33;100132.28;4994041;28;97132;-84
2022/06/27 09:23:28;;;;;;;18.13;16.52;;;;;;;37.63;26.55;100124.56;5002684;28;97212;-84
2022/06/27 09:26:05;;;;;;;16.25;15.25;;;;;;;37.50;27.02;100117.41;5001274;28;101372;-85
2022/06/27 09:28:39;;;;;;;16.67;15.57;;;;;;;37.14;26.30;100093.69;4994586;28;101178;-86
2022/06/27 09:31:28;;;;;;;17.65;16.40;;;;;;;37.69;27.01;100129.09;5010826;28;97151;-86
2022/06/27 09:34:23;;;;;;;18.03;16.43;;;;;;;36.87;27.48;100129.56;5010473;28;96942;-86
2022/06/27 09:36:54;;;;;;;17.73;16.20;;;;;;;37.08;27.55;100120.06;4992467;28;101087;-90
2022/06/27 09:39:19;;;;;;;16.98;15.88;;;;;;;36.81;27.00;100116.81;4993389;28;101150;-84
2022/06/27 09:41:54;;;;;;;17.42;16.02;;;;;;;36.59;27.33;100121.91;5006242;28;97259;-84
2022/06/27 09:44:22;;;;;;;17.85;16.25;;;;;;;36.49;27.72;100103.28;4991216;28;96853;-84
2022/06/27 09:46:52;;;;;;;16.85;15.70;;;;;;;36.69;27.58;100099.53;5024099;28;101333;-84
2022/06/27 09:49:19;;;;;;;16.92;15.77;;;;;;;36.66;27.61;100105.44;5004756;28;99726;-87
2022/06/27 09:51:46;;;;;;;16.98;15.77;;;;;;;36.63;27.63;100106.72;5020990;28;96877;-86
2022/06/27 09:54:16;;;;;;;17.88;16.38;;;;;;;36.35;27.91;100100.94;5004121;28;97314;-84
2022/06/27 09:56:42;;;;;;;15.48;14.60;;;;;;;36.14;28.22;100110.38;4994550;28;102074;-83
2022/06/27 09:59:11;;;;;;;17.42;16.02;;;;;;;35.94;27.54;100107.81;4992777;28;101500;-83
2022/06/27 10:01:44;;;;;;;16.67;15.30;;;;;;;35.51;28.23;100070.31;5008775;28;97733;-84
2022/06/27 10:04:10;;;;;;;17.80;16.58;;;;;;;35.60;28.50;100099.88;5011099;28;97255;-82
2022/06/27 10:06:39;;;;;;;17.15;16.08;;;;;;;35.45;27.97;100103.94;5004972;28;101627;-82
2022/06/27 10:09:08;;;;;;;17.65;16.52;;;;;;;35.31;28.29;100095.84;4997711;28;101042;-82
2022/06/27 10:11:34;;;;;;;17.38;16.10;;;;;;;35.22;28.50;100090.88;5005495;28;96957;-85
2022/06/27 10:14:15;;;;;;;17.30;16.23;;;;;;;35.11;28.93;100084.22;5027694;28;97125;-80
2022/06/27 10:16:56;;;;;;;18.13;16.98;;;;;;;34.97;27.98;100082.59;5021455;28;101521;-87
2022/06/27 10:19:27;;;;;;;18.15;16.90;;;;;;;34.90;28.67;100074.44;5007821;28;98352;-88
2022/06/27 10:21:53;;;;;;;18.10;16.85;;;;;;;34.49;29.21;100053.84;5009299;28;97899;-88
2022/06/27 10:24:18;;;;;;;18.98;17.48;;;;;;;34.51;29.44;100069.97;4997312;28;97231;-88
2022/06/27 10:26:45;;;;;;;18.50;17.17;;;;;;;34.32;29.71;100064.34;5019231;28;101277;-89
2022/06/27 10:29:45;;;;;;;18.65;17.27;;;;;;;34.06;29.93;100073.41;5018987;28;98470;-88
2022/06/27 10:32:46;;;;;;;18.55;17.25;;;;;;;33.93;30.37;100071.53;4972025;28;96885;-88
2022/06/27 10:35:13;;;;;;;17.98;16.58;;;;;;;33.98;30.57;100060.03;4935099;28;96949;-88
2022/06/27 10:37:40;;;;;;;17.40;16.30;;;;;;;33.85;30.73;100066.28;4988949;27;100493;-89
2022/06/27 10:40:21;;;;;;;17.88;16.58;;;;;;;33.67;30.85;100053.34;4989365;28;101218;-89
2022/06/27 10:42:51;;;;;;;18.23;16.73;;;;;;;33.44;30.89;100044.72;5013036;28;97139;-89
2022/06/27 10:45:20;;;;;;;17.45;16.27;;;;;;;33.38;30.68;100046.38;5004866;28;97169;-89
2022/06/27 10:47:57;;;;;;;16.65;15.35;;;;;;;33.24;31.13;100033.81;5011480;28;101105;-89
2022/06/27 10:50:24;;;;;;;18.10;16.40;;;;;;;33.20;31.23;100017.06;4994200;28;101893;-89
2022/06/27 10:52:51;;;;;;;18.60;17.05;;;;;;;33.56;31.42;100051.22;4994210;28;96843;-90
2022/06/27 10:55:27;;;;;;;19.02;17.45;;;;;;;33.56;31.29;100056.69;4993177;28;97530;-89
2022/06/27 10:57:54;;;;;;;18.35;16.88;;;;;;;33.39;31.13;100020.84;5029143;28;98563;-88
2022/06/27 11:00:40;;;;;;;19.08;17.52;;;;;;;33.66;31.68;100051.66;4983166;28;101748;-88
2022/06/27 11:03:08;;;;;;;18.15;16.95;;;;;;;33.37;31.00;100055.59;5019439;28;97320;-88
2022/06/27 11:05:50;;;;;;;19.23;17.85;;;;;;;33.40;31.29;100047.03;5020730;28;97579;-89
2022/06/27 11:08:16;;;;;;;18.83;17.52;;;;;;;33.33;31.57;100044.28;5002050;28;99790;-88
2022/06/27 11:10:43;;;;;;;19.38;17.85;;;;;;;33.37;31.16;100042.00;5003605;28;98616;-87
2022/06/27 11:13:08;;;;;;;19.45;17.80;;;;;;;33.42;31.38;100030.47;5010864;28;97388;-84
2022/06/27 11:15:34;;;;;;;19.25;17.67;;;;;;;33.47;31.71;100025.25;5017545;28;97514;-86
2022/06/27 11:18:06;;;;;;;19.23;17.42;;;;;;;33.42;31.43;100031.31;4996469;28;97517;-83
2022/06/27 11:20:32;;;;;;;18.65;17.20;;;;;;;33.46;31.19;100015.44;5007236;28;97438;-79